Main page
METAR-TAF:

METAR-TAF

Airports :

Seville Airport

Seville, Spain

latitude: 37-25N, longitude: 005-54W, elevation: 34 m

Current weather observation

The report was made 33 minutes ago, at 13:30 UTC
Wind 1 kt from the North/Northeast
Temperature 19°C
Humidity 60%
Pressure 1023 hPa
Visibility 10 km or more
no clouds below 1500 m and no cumulonimbus

METAR: LEZL 021330Z 03001KT CAVOK 19/11 Q1023 NOSIG

Time: 15:03 (14:03 UTC)

Forecast

The report was made 6 hours and 3 minutes ago, at 08:00 UTC
Forecast valid from 02 at 09 UTC to 03 at 09 UTC
Wind 6 kt from the East/Northeast
Visibility 10 km or more
no clouds below 1500 m and no cumulonimbus

TAF: LEZL 020800Z 0209/0309 06006KT CAVOK TX22/0216Z TN11/0307Z

Weather observations and forecasts of more than 4000 airports (METAR and TAF reports).

The available stations are represented by yellow and red dots on the map.

Hover mouse over dot to see the name of the station.

Then click to see weather observations and forecasts.

To change the map : click on the green buttons with a black cross to zoom in, on the green button with a dash to zoom out, or on the green arrows for adjacent maps.


METAR-TAF: